Time;durP1;ratioP1;P1;durP2;ratioP2;P2;SDS_P1;SDS_P2;PMS_P1;PMS_P2;Temp;Humidity;BMP_temperature;BMP_pressure;BME280_temperature;BME280_humidity;BME280_pressure;Samples;Min_cycle;Max_cycle;Signal;HPM_P1;HPM_P2
2023/03/04 00:00:28;;;;;;;0.00;0.00;;;5.60;99.90;;;;;;5059212;28;20111;-83
2023/03/04 00:02:54;;;;;;;0.20;0.20;;;5.50;99.90;;;;;;5059245;28;20255;-84
2023/03/04 00:05:20;;;;;;;0.00;0.00;;;5.50;99.90;;;;;;5058996;28;20053;-84
2023/03/04 00:07:45;;;;;;;0.00;0.00;;;5.60;99.90;;;;;;5058390;28;20056;-84
2023/03/04 00:10:11;;;;;;;0.73;0.73;;;5.60;99.90;;;;;;5057747;28;20036;-84
2023/03/04 00:12:37;;;;;;;0.00;0.00;;;5.60;99.90;;;;;;5058382;28;20051;-83
2023/03/04 00:15:03;;;;;;;0.00;0.00;;;5.60;99.90;;;;;;5057904;28;20072;-83
2023/03/04 00:17:30;;;;;;;2.83;0.73;;;5.60;99.90;;;;;;5057431;28;20048;-83
2023/03/04 00:19:56;;;;;;;0.20;0.20;;;5.60;99.90;;;;;;5056606;28;20048;-83
2023/03/04 00:22:22;;;;;;;3.35;0.98;;;6.50;99.90;;;;;;5057654;28;20044;-83
2023/03/04 00:24:48;;;;;;;0.30;0.20;;;5.60;99.90;;;;;;5056675;28;20418;-83
2023/03/04 00:27:13;;;;;;;0.00;0.00;;;5.60;99.90;;;;;;5057372;28;20048;-84
2023/03/04 00:29:39;;;;;;;9.40;1.88;;;5.60;99.90;;;;;;5057242;28;20041;-83
2023/03/04 00:32:04;;;;;;;0.00;0.00;;;5.70;99.90;;;;;;5056981;28;20095;-84
2023/03/04 00:34:30;;;;;;;26.00;0.55;;;5.60;99.90;;;;;;5038777;28;20109;-84
2023/03/04 00:37:00;;;;;;;1.02;0.75;;;5.60;99.90;;;;;;5056689;28;20048;-83
2023/03/04 00:39:27;;;;;;;0.10;0.10;;;5.60;99.90;;;;;;5056736;28;20348;-83
2023/03/04 00:41:55;;;;;;;0.10;0.10;;;5.70;99.90;;;;;;5056693;28;20128;-83
2023/03/04 00:44:21;;;;;;;0.17;0.17;;;5.70;99.90;;;;;;5055483;28;20071;-83
2023/03/04 00:46:47;;;;;;;0.00;0.00;;;5.70;99.90;;;;;;5055904;28;20036;-83
2023/03/04 00:49:12;;;;;;;0.00;0.00;;;5.70;99.90;;;;;;5056327;28;20048;-82
2023/03/04 00:51:38;;;;;;;0.00;0.00;;;5.60;99.90;;;;;;5056470;28;20079;-83
2023/03/04 00:54:04;;;;;;;0.40;0.40;;;5.60;99.90;;;;;;5055879;28;20045;-83
2023/03/04 00:56:29;;;;;;;0.00;0.00;;;5.60;99.90;;;;;;5056479;28;20049;-83
2023/03/04 00:58:55;;;;;;;0.00;0.00;;;5.60;99.90;;;;;;5056003;28;20044;-83
2023/03/04 01:01:21;;;;;;;0.00;0.00;;;5.60;99.90;;;;;;5055927;28;20041;-83
2023/03/04 01:03:47;;;;;;;6.60;0.75;;;5.60;99.90;;;;;;5055392;28;20071;-83
2023/03/04 01:06:13;;;;;;;0.00;0.00;;;5.60;99.90;;;;;;5056274;28;20074;-83
2023/03/04 01:08:39;;;;;;;2.13;0.75;;;5.60;99.90;;;;;;5056506;28;20293;-84
2023/03/04 01:11:05;;;;;;;0.00;0.00;;;5.60;99.90;;;;;;5055247;28;20482;-83
2023/03/04 01:13:31;;;;;;;0.38;0.38;;;5.60;99.90;;;;;;5056007;28;20045;-83
2023/03/04 01:15:56;;;;;;;0.10;0.10;;;5.60;99.90;;;;;;5054491;28;20048;-83
2023/03/04 01:18:22;;;;;;;3.85;0.38;;;5.60;99.90;;;;;;5055302;28;20407;-82
2023/03/04 01:20:48;;;;;;;0.00;0.00;;;5.60;99.90;;;;;;5055009;28;20040;-84
2023/03/04 01:23:14;;;;;;;0.00;0.00;;;5.70;99.90;;;;;;5056390;28;20051;-83
2023/03/04 01:25:40;;;;;;;0.00;0.00;;;6.70;99.90;;;;;;5056625;28;20112;-83
2023/03/04 01:28:05;;;;;;;0.05;0.05;;;5.60;99.90;;;;;;5055208;28;20048;-83
2023/03/04 01:30:31;;;;;;;0.00;0.00;;;5.70;99.90;;;;;;5056381;28;20044;-84
2023/03/04 01:32:57;;;;;;;0.00;0.00;;;5.70;99.90;;;;;;5055756;28;20079;-83
2023/03/04 01:35:23;;;;;;;0.00;0.00;;;5.70;99.90;;;;;;5055543;28;20067;-84
2023/03/04 01:37:48;;;;;;;0.40;0.38;;;5.70;99.90;;;;;;5055621;28;20041;-84
2023/03/04 01:40:14;;;;;;;0.20;0.20;;;5.70;1.00;;;;;;5053197;28;20048;-83
2023/03/04 01:42:40;;;;;;;0.00;0.00;;;5.70;1.00;;;;;;5053852;28;20434;-83
2023/03/04 01:45:09;;;;;;;0.00;0.00;;;5.60;1.00;;;;;;5056067;28;20060;-82
2023/03/04 01:47:35;;;;;;;0.10;0.10;;;5.60;1.00;;;;;;5053864;28;20403;-83
2023/03/04 01:50:04;;;;;;;0.00;0.00;;;5.60;1.00;;;;;;5055762;28;20068;-82
2023/03/04 01:52:30;;;;;;;0.00;0.00;;;5.70;1.00;;;;;;5053919;28;20107;-83
2023/03/04 01:54:56;;;;;;;0.22;0.22;;;5.60;1.00;;;;;;5053726;28;20045;-83
2023/03/04 01:57:24;;;;;;;0.00;0.00;;;5.50;99.90;;;;;;5054298;28;20399;-82
2023/03/04 02:00:29;;;;;;;10.98;0.80;;;5.50;99.90;;;;;;5054910;28;20124;-83
2023/03/04 02:03:10;;;;;;;0.00;0.00;;;5.50;99.90;;;;;;5054482;28;20060;-82
2023/03/04 02:05:38;;;;;;;0.00;0.00;;;5.50;1.00;;;;;;5055438;28;20040;-83
2023/03/04 02:08:05;;;;;;;0.00;0.00;;;5.50;99.90;;;;;;5055009;28;20544;-83
2023/03/04 02:10:31;;;;;;;0.75;0.75;;;5.50;1.00;;;;;;5054814;28;20516;-82
2023/03/04 02:12:59;;;;;;;0.00;0.00;;;5.40;1.00;;;;;;5055000;28;20124;-82
2023/03/04 02:15:25;;;;;;;0.30;0.30;;;5.40;1.00;;;;;;5055038;28;20041;-83
2023/03/04 02:17:50;;;;;;;3.15;1.38;;;5.50;99.90;;;;;;5054699;28;20055;-82
2023/03/04 02:20:24;;;;;;;0.20;0.20;;;5.50;99.90;;;;;;5055998;28;20057;-82
2023/03/04 02:22:58;;;;;;;1.10;1.05;;;5.40;99.90;;;;;;5054776;28;20048;-83
2023/03/04 02:25:32;;;;;;;0.10;0.10;;;6.00;29.50;;;;;;5055478;28;21227;-82
2023/03/04 02:27:57;;;;;;;0.00;0.00;;;5.40;28.80;;;;;;5055383;28;20518;-83
2023/03/04 02:30:24;;;;;;;1.17;1.00;;;5.30;23.20;;;;;;5055109;28;20064;-83
2023/03/04 02:32:51;;;;;;;0.00;0.00;;;5.40;99.90;;;;;;5055005;28;20049;-83
2023/03/04 02:35:17;;;;;;;1.00;1.00;;;6.00;14.50;;;;;;5054080;28;20087;-83
2023/03/04 02:37:43;;;;;;;0.00;0.00;;;5.30;9.80;;;;;;5054889;28;20044;-83
2023/03/04 02:40:23;;;;;;;0.00;0.00;;;5.30;1.00;;;;;;5055327;28;20041;-84
2023/03/04 02:42:49;;;;;;;0.20;0.20;;;5.30;1.00;;;;;;5054591;28;20049;-83
2023/03/04 02:45:48;;;;;;;0.82;0.52;;;5.20;1.00;;;;;;5052733;28;20077;-83
2023/03/04 02:48:17;;;;;;;2.20;1.17;;;5.20;1.00;;;;;;5053124;28;20064;-84
2023/03/04 02:50:51;;;;;;;0.00;0.00;;;5.30;1.00;;;;;;5054427;28;20044;-83
2023/03/04 02:53:17;;;;;;;0.50;0.50;;;5.30;1.00;;;;;;5055240;28;20049;-83
2023/03/04 02:55:43;;;;;;;0.00;0.00;;;5.60;1.00;;;;;;5054043;28;20037;-83
2023/03/04 02:58:10;;;;;;;22.08;1.00;;;5.20;1.00;;;;;;5053797;28;20092;-83
2023/03/04 03:00:37;;;;;;;0.22;0.17;;;5.20;1.00;;;;;;5053875;28;20049;-83
2023/03/04 03:03:03;;;;;;;0.00;0.00;;;5.30;99.90;;;;;;5053677;28;20041;-83
2023/03/04 03:05:30;;;;;;;0.00;0.00;;;5.20;99.90;;;;;;5053186;28;20051;-83
2023/03/04 03:07:56;;;;;;;0.15;0.15;;;5.30;99.90;;;;;;5052388;28;20109;-83
2023/03/04 03:10:22;;;;;;;0.00;0.00;;;5.20;99.90;;;;;;5056293;28;20124;-83
2023/03/04 03:12:48;;;;;;;0.10;0.10;;;5.30;99.90;;;;;;5058127;28;20045;-83
2023/03/04 03:15:14;;;;;;;0.40;0.38;;;5.30;99.90;;;;;;5058625;28;20045;-83
2023/03/04 03:17:40;;;;;;;0.00;0.00;;;5.30;99.90;;;;;;5058004;28;20127;-84
2023/03/04 03:20:07;;;;;;;0.00;0.00;;;5.30;99.90;;;;;;5058615;28;20084;-82
2023/03/04 03:22:32;;;;;;;0.15;0.15;;;5.30;99.90;;;;;;5057876;28;20041;-83
2023/03/04 03:24:58;;;;;;;0.25;0.25;;;5.30;99.90;;;;;;5058095;28;20080;-83
2023/03/04 03:27:24;;;;;;;0.00;0.00;;;5.30;95.30;;;;;;5057615;28;20432;-83
2023/03/04 03:29:50;;;;;;;0.20;0.17;;;5.40;67.70;;;;;;5057839;28;20048;-83
2023/03/04 03:32:15;;;;;;;0.00;0.00;;;5.40;53.60;;;;;;5057917;28;20041;-83
2023/03/04 03:34:41;;;;;;;0.17;0.17;;;5.40;99.90;;;;;;5058554;28;20052;-83
2023/03/04 03:37:07;;;;;;;0.30;0.30;;;5.40;1.00;;;;;;5057623;28;20045;-83
2023/03/04 03:39:33;;;;;;;2.63;0.75;;;5.30;1.00;;;;;;5058089;28;20045;-83
2023/03/04 03:41:58;;;;;;;0.08;0.08;;;5.30;13.30;;;;;;5058194;28;20096;-83
2023/03/04 03:44:24;;;;;;;0.05;0.05;;;5.30;1.00;;;;;;5057400;28;20041;-83
2023/03/04 03:46:50;;;;;;;0.00;0.00;;;5.30;80.80;;;;;;5057048;28;20052;-84
2023/03/04 03:49:16;;;;;;;2.20;0.95;;;5.20;99.90;;;;;;5057118;28;20045;-83
2023/03/04 03:51:42;;;;;;;0.00;0.00;;;5.20;99.90;;;;;;5057166;28;20033;-83
2023/03/04 03:54:08;;;;;;;0.35;0.32;;;6.20;99.90;;;;;;5038759;28;20056;-84
2023/03/04 03:56:34;;;;;;;0.00;0.00;;;5.20;82.00;;;;;;5057392;28;20083;-83
2023/03/04 03:58:59;;;;;;;0.00;0.00;;;5.20;1.00;;;;;;5056795;28;20534;-83
2023/03/04 04:01:25;;;;;;;0.00;0.00;;;5.30;1.00;;;;;;5056347;28;20096;-83
2023/03/04 04:03:51;;;;;;;4.03;0.15;;;5.20;1.00;;;;;;5057189;28;20036;-83
2023/03/04 04:06:16;;;;;;;0.00;0.00;;;5.30;99.90;;;;;;5057406;28;20037;-83
2023/03/04 04:08:42;;;;;;;0.88;0.65;;;5.30;99.90;;;;;;5057743;28;20095;-83
2023/03/04 04:11:11;;;;;;;0.00;0.00;;;5.30;99.90;;;;;;5058465;28;20048;-83
2023/03/04 04:13:37;;;;;;;0.28;0.28;;;5.30;99.90;;;;;;5057485;28;20063;-84
2023/03/04 04:16:04;;;;;;;0.20;0.20;;;5.30;99.90;;;;;;5056831;28;20041;-84
2023/03/04 04:18:29;;;;;;;0.08;0.08;;;5.30;99.90;;;;;;5056902;28;20053;-83
2023/03/04 04:20:55;;;;;;;0.00;0.00;;;5.40;99.90;;;;;;5056570;28;20585;-83
2023/03/04 04:23:21;;;;;;;0.00;0.00;;;5.30;99.90;;;;;;5057167;28;20068;-83
2023/03/04 04:25:47;;;;;;;0.00;0.00;;;5.30;99.90;;;;;;5057133;28;20096;-83
2023/03/04 04:28:12;;;;;;;0.00;0.00;;;5.30;99.90;;;;;;5057352;28;20037;-83
2023/03/04 04:30:38;;;;;;;0.00;0.00;;;5.30;99.90;;;;;;5055440;28;20045;-84
2023/03/04 04:33:04;;;;;;;3.10;1.75;;;5.20;63.80;;;;;;5056373;28;20051;-83
2023/03/04 04:35:35;;;;;;;0.00;0.00;;;5.20;95.00;;;;;;5056598;28;20049;-84
2023/03/04 04:38:01;;;;;;;0.22;0.22;;;5.10;99.90;;;;;;5057985;28;20055;-83
2023/03/04 04:40:26;;;;;;;0.63;0.63;;;5.20;1.00;;;;;;5058310;28;20097;-84
2023/03/04 04:42:52;;;;;;;0.00;0.00;;;5.20;99.90;;;;;;5058488;28;20049;-85
2023/03/04 04:45:18;;;;;;;0.20;0.20;;;5.30;99.90;;;;;;5057189;28;20118;-84
2023/03/04 04:47:43;;;;;;;0.10;0.10;;;5.30;99.90;;;;;;5057183;28;20064;-84
2023/03/04 04:50:09;;;;;;;0.98;0.90;;;5.30;1.00;;;;;;5058084;28;20078;-84
2023/03/04 04:52:35;;;;;;;0.52;0.52;;;5.20;99.90;;;;;;5058029;28;20049;-83
2023/03/04 04:55:02;;;;;;;0.45;0.20;;;5.20;99.90;;;;;;5057217;28;20388;-84
2023/03/04 04:57:28;;;;;;;0.00;0.00;;;5.20;43.10;;;;;;5057098;28;20045;-83
2023/03/04 04:59:53;;;;;;;0.00;0.00;;;5.20;1.00;;;;;;5057297;28;20410;-83
2023/03/04 05:02:19;;;;;;;1.27;0.38;;;5.20;99.90;;;;;;5057679;28;20044;-83
2023/03/04 05:04:45;;;;;;;0.08;0.08;;;5.10;99.90;;;;;;5058091;28;20045;-84
2023/03/04 05:07:10;;;;;;;0.20;0.20;;;5.10;99.90;;;;;;5056240;28;20216;-84
2023/03/04 05:09:36;;;;;;;1.20;0.50;;;5.10;32.10;;;;;;5057783;28;20052;-84
2023/03/04 05:12:02;;;;;;;0.03;0.03;;;5.00;99.90;;;;;;5057209;28;20047;-84
2023/03/04 05:14:28;;;;;;;0.10;0.10;;;5.00;99.90;;;;;;5056678;28;20080;-83
2023/03/04 05:16:53;;;;;;;2.10;0.43;;;5.00;99.90;;;;;;5057245;28;20056;-83
2023/03/04 05:19:20;;;;;;;0.20;0.20;;;5.00;99.90;;;;;;5054739;28;20110;-83
2023/03/04 05:21:45;;;;;;;0.05;0.05;;;4.90;99.90;;;;;;5056290;28;20433;-83
2023/03/04 05:24:11;;;;;;;0.00;0.00;;;4.90;99.90;;;;;;5056011;28;20071;-83
2023/03/04 05:26:37;;;;;;;0.00;0.00;;;4.90;99.90;;;;;;5053940;28;20106;-83
2023/03/04 05:29:03;;;;;;;0.50;0.45;;;4.90;99.90;;;;;;5053793;28;20164;-83
2023/03/04 05:31:29;;;;;;;0.00;0.00;;;5.00;99.90;;;;;;5054034;28;20049;-83
2023/03/04 05:33:55;;;;;;;0.03;0.03;;;4.90;99.90;;;;;;5054412;28;20070;-83
2023/03/04 05:36:21;;;;;;;0.00;0.00;;;4.90;99.90;;;;;;5054488;28;20153;-83
2023/03/04 05:38:47;;;;;;;0.00;0.00;;;5.00;99.90;;;;;;5051645;28;20179;-83
2023/03/04 05:41:12;;;;;;;0.00;0.00;;;4.90;99.90;;;;;;5052909;28;20041;-83
2023/03/04 05:43:41;;;;;;;0.00;0.00;;;4.90;99.90;;;;;;5054349;28;20041;-83
2023/03/04 05:46:08;;;;;;;0.00;0.00;;;4.90;99.90;;;;;;5053473;28;20067;-83
2023/03/04 05:48:34;;;;;;;0.00;0.00;;;4.90;99.90;;;;;;5034805;28;20055;-83
2023/03/04 05:51:01;;;;;;;0.00;0.00;;;5.00;99.90;;;;;;5051308;28;20053;-83
2023/03/04 05:53:27;;;;;;;0.00;0.00;;;5.00;99.90;;;;;;5052223;28;20045;-83
2023/03/04 05:55:54;;;;;;;1.13;0.47;;;5.00;99.90;;;;;;5053165;28;20071;-84
2023/03/04 05:58:20;;;;;;;0.00;0.00;;;5.00;99.90;;;;;;5054526;28;20573;-83
2023/03/04 06:00:46;;;;;;;0.20;0.20;;;5.00;99.90;;;;;;5052953;28;20084;-83
2023/03/04 06:03:18;;;;;;;0.80;0.73;;;5.00;99.90;;;;;;5054638;28;20093;-84
2023/03/04 06:05:44;;;;;;;0.00;0.00;;;5.00;99.90;;;;;;5055261;28;20096;-83
2023/03/04 06:08:11;;;;;;;0.00;0.00;;;5.40;99.90;;;;;;5056116;28;20102;-83
2023/03/04 06:10:38;;;;;;;0.00;0.00;;;5.00;99.90;;;;;;5055926;28;20125;-83
2023/03/04 06:13:04;;;;;;;0.30;0.28;;;5.00;99.90;;;;;;5056123;28;20041;-83
2023/03/04 06:15:31;;;;;;;0.00;0.00;;;5.00;99.90;;;;;;5057177;28;20598;-83
2023/03/04 06:17:57;;;;;;;0.00;0.00;;;5.00;99.90;;;;;;5056145;28;20064;-83
2023/03/04 06:20:23;;;;;;;0.10;0.10;;;5.00;99.90;;;;;;5056135;28;20072;-83
2023/03/04 06:22:48;;;;;;;0.00;0.00;;;5.00;99.90;;;;;;5056799;28;20122;-82
2023/03/04 06:25:14;;;;;;;0.00;0.00;;;5.00;99.90;;;;;;5056830;28;20045;-83
2023/03/04 06:27:40;;;;;;;0.05;0.05;;;5.00;99.90;;;;;;5057690;28;20560;-83
2023/03/04 06:30:07;;;;;;;4.18;1.55;;;5.00;99.90;;;;;;5057276;28;20051;-82
2023/03/04 06:32:32;;;;;;;0.10;0.10;;;5.10;99.90;;;;;;5054784;28;20059;-83
2023/03/04 06:34:58;;;;;;;0.00;0.00;;;5.00;99.90;;;;;;5050794;28;20566;-82
2023/03/04 06:37:24;;;;;;;0.32;0.28;;;5.10;99.90;;;;;;5048972;28;20521;-82
2023/03/04 06:39:50;;;;;;;0.00;0.00;;;5.10;99.90;;;;;;5048446;28;20060;-82
2023/03/04 06:42:15;;;;;;;8.25;1.02;;;5.10;99.90;;;;;;5049639;28;20179;-83
2023/03/04 06:44:41;;;;;;;0.00;0.00;;;5.20;99.90;;;;;;5051198;28;20065;-83
2023/03/04 06:47:07;;;;;;;0.00;0.00;;;5.20;99.90;;;;;;5049307;28;20052;-83
2023/03/04 06:49:33;;;;;;;0.03;0.03;;;5.20;99.90;;;;;;5050661;28;20107;-83
2023/03/04 06:51:59;;;;;;;0.00;0.00;;;5.20;99.90;;;;;;5055450;28;20118;-83
2023/03/04 06:54:24;;;;;;;3.30;1.45;;;5.20;99.90;;;;;;5071904;28;20052;-83
2023/03/04 06:56:50;;;;;;;0.45;0.45;;;5.10;99.90;;;;;;5071269;28;20029;-83
2023/03/04 06:59:16;;;;;;;0.00;0.00;;;5.20;99.90;;;;;;5068815;28;20035;-83
2023/03/04 07:01:41;;;;;;;0.00;0.00;;;5.20;99.90;;;;;;5069883;28;20191;-83
2023/03/04 07:04:07;;;;;;;0.00;0.00;;;5.20;99.90;;;;;;5057953;28;20079;-83
2023/03/04 07:06:33;;;;;;;0.00;0.00;;;5.30;99.90;;;;;;5055541;28;20049;-82
2023/03/04 07:08:59;;;;;;;0.00;0.00;;;5.30;99.90;;;;;;5055667;28;20577;-82
2023/03/04 07:11:25;;;;;;;1.75;1.08;;;5.30;99.90;;;;;;5055552;28;20037;-83
2023/03/04 07:13:51;;;;;;;2.22;0.80;;;5.40;99.90;;;;;;5055336;28;20048;-83
2023/03/04 07:16:19;;;;;;;1.20;0.63;;;5.40;99.90;;;;;;5055624;28;20048;-82
2023/03/04 07:18:45;;;;;;;0.00;0.00;;;5.40;99.90;;;;;;5055473;28;20045;-82
2023/03/04 07:21:13;;;;;;;0.10;0.10;;;5.40;99.90;;;;;;5055354;28;20049;-82
2023/03/04 07:23:39;;;;;;;0.05;0.05;;;5.40;99.90;;;;;;5055060;28;20124;-83
2023/03/04 07:26:06;;;;;;;0.00;0.00;;;5.50;99.90;;;;;;5056073;28;20045;-83
2023/03/04 07:28:32;;;;;;;0.52;0.38;;;5.50;99.90;;;;;;5055273;28;20052;-83
2023/03/04 07:31:10;;;;;;;1.88;0.85;;;5.50;99.90;;;;;;5055254;28;20100;-83
2023/03/04 07:33:36;;;;;;;0.00;0.00;;;5.50;99.90;;;;;;5055401;28;20444;-83
2023/03/04 07:36:02;;;;;;;0.00;0.00;;;5.60;99.90;;;;;;5053388;28;20052;-83
2023/03/04 07:38:27;;;;;;;0.00;0.00;;;5.60;99.90;;;;;;5055709;28;20460;-83
2023/03/04 07:40:57;;;;;;;0.00;0.00;;;5.70;99.90;;;;;;5054798;28;20454;-83
2023/03/04 07:43:23;;;;;;;0.08;0.08;;;5.70;99.90;;;;;;5053202;28;20118;-83
2023/03/04 07:45:49;;;;;;;0.03;0.03;;;5.70;99.90;;;;;;5052955;28;20061;-83
2023/03/04 07:48:14;;;;;;;0.00;0.00;;;5.70;99.90;;;;;;5054932;28;20104;-83
2023/03/04 07:50:40;;;;;;;0.00;0.00;;;5.70;99.90;;;;;;5051675;28;20139;-83
2023/03/04 07:53:06;;;;;;;0.00;0.00;;;5.60;99.90;;;;;;5050607;28;20495;-83
2023/03/04 07:55:32;;;;;;;0.00;0.00;;;5.60;99.90;;;;;;5047783;28;20087;-83
2023/03/04 07:57:57;;;;;;;0.10;0.10;;;5.60;99.90;;;;;;5049527;28;20511;-83
2023/03/04 08:00:23;;;;;;;0.47;0.43;;;5.70;99.90;;;;;;5033145;28;20102;-83
2023/03/04 08:02:49;;;;;;;0.00;0.00;;;5.80;99.90;;;;;;5036885;28;20361;-83
2023/03/04 08:05:14;;;;;;;0.00;0.00;;;5.80;99.90;;;;;;5070762;28;20045;-83
2023/03/04 08:07:40;;;;;;;0.00;0.00;;;5.80;99.90;;;;;;5051615;28;20538;-83
2023/03/04 08:10:07;;;;;;;0.00;0.00;;;5.80;99.90;;;;;;5043042;28;20120;-83
2023/03/04 08:12:33;;;;;;;0.00;0.00;;;5.80;99.90;;;;;;5042594;28;20037;-83
2023/03/04 08:14:59;;;;;;;2.78;0.80;;;5.80;99.90;;;;;;5029135;28;20127;-83
2023/03/04 08:17:25;;;;;;;0.77;0.77;;;5.80;99.90;;;;;;5024483;28;20045;-84
2023/03/04 08:19:50;;;;;;;1.75;0.63;;;5.60;99.90;;;;;;5022553;28;20045;-83
2023/03/04 08:22:16;;;;;;;30.42;0.73;;;5.50;99.90;;;;;;5022462;28;20061;-84
2023/03/04 08:24:42;;;;;;;0.08;0.08;;;5.50;99.90;;;;;;5023000;28;20598;-83
2023/03/04 08:27:07;;;;;;;0.52;0.50;;;5.50;99.90;;;;;;5023556;28;20063;-84
2023/03/04 08:29:33;;;;;;;1.50;1.40;;;5.50;99.90;;;;;;5025256;28;20503;-83
2023/03/04 08:31:59;;;;;;;1.30;0.70;;;5.50;99.90;;;;;;5031243;28;20045;-83
2023/03/04 08:34:26;;;;;;;0.05;0.05;;;5.60;99.90;;;;;;5029049;28;20053;-83
2023/03/04 08:36:52;;;;;;;12.85;0.75;;;5.70;99.90;;;;;;5030018;28;20049;-83
2023/03/04 08:39:19;;;;;;;1.13;1.10;;;5.80;99.90;;;;;;5031731;28;20428;-83
2023/03/04 08:41:46;;;;;;;0.00;0.00;;;5.90;99.90;;;;;;5030227;28;20124;-83
2023/03/04 08:44:12;;;;;;;0.05;0.05;;;6.00;99.90;;;;;;5029783;28;20052;-83
2023/03/04 08:46:39;;;;;;;0.43;0.40;;;5.90;99.90;;;;;;5031334;28;20058;-83
2023/03/04 08:49:05;;;;;;;0.05;0.05;;;5.80;99.90;;;;;;5030378;28;20068;-83
2023/03/04 08:51:31;;;;;;;1.17;0.70;;;5.80;99.90;;;;;;5031318;28;20056;-83
2023/03/04 08:53:57;;;;;;;0.00;0.00;;;5.70;99.90;;;;;;5030065;28;20503;-83
2023/03/04 08:56:23;;;;;;;1.00;0.55;;;5.70;99.90;;;;;;5030421;28;20049;-83
2023/03/04 08:58:48;;;;;;;18.63;3.38;;;5.70;99.90;;;;;;5029356;28;20577;-83
2023/03/04 09:01:15;;;;;;;0.00;0.00;;;5.70;99.90;;;;;;5028922;28;20049;-83
2023/03/04 09:03:41;;;;;;;0.00;0.00;;;5.70;99.90;;;;;;5029972;28;20049;-83
2023/03/04 09:06:10;;;;;;;0.75;0.75;;;5.70;99.90;;;;;;5028486;28;20394;-83
2023/03/04 09:08:36;;;;;;;0.60;0.52;;;5.80;99.90;;;;;;5028615;28;20121;-83
2023/03/04 09:11:02;;;;;;;3.47;0.80;;;5.90;99.90;;;;;;5028372;28;20088;-83
2023/03/04 09:13:29;;;;;;;0.20;0.20;;;5.90;99.90;;;;;;5027361;28;20053;-83
2023/03/04 09:15:56;;;;;;;8.48;2.30;;;5.90;99.90;;;;;;5030758;28;20077;-83
2023/03/04 09:18:23;;;;;;;1.77;0.88;;;6.00;99.90;;;;;;5030359;28;20049;-83
2023/03/04 09:20:48;;;;;;;3.47;1.60;;;6.10;99.90;;;;;;5031354;28;20049;-83
2023/03/04 09:23:15;;;;;;;0.00;0.00;;;6.10;99.90;;;;;;5029232;28;20556;-83
2023/03/04 09:25:42;;;;;;;0.80;0.32;;;6.10;99.90;;;;;;5029429;28;20056;-83
2023/03/04 09:28:07;;;;;;;1.65;1.55;;;6.20;99.90;;;;;;5030509;28;20072;-83
2023/03/04 09:30:33;;;;;;;0.10;0.10;;;6.20;99.90;;;;;;5029470;28;20077;-83
2023/03/04 09:33:00;;;;;;;2.10;1.05;;;6.30;99.90;;;;;;5030272;28;20131;-83
2023/03/04 09:35:28;;;;;;;1.00;0.93;;;6.30;99.90;;;;;;5029355;28;20048;-83
2023/03/04 09:37:55;;;;;;;0.82;0.82;;;6.40;99.90;;;;;;5029490;28;20052;-83
2023/03/04 09:40:26;;;;;;;0.00;0.00;;;6.40;99.90;;;;;;5030323;28;20476;-83
2023/03/04 09:43:04;;;;;;;0.00;0.00;;;6.80;99.90;;;;;;5028728;28;20347;-83
2023/03/04 09:45:39;;;;;;;0.00;0.00;;;6.20;99.90;;;;;;5026042;28;20057;-83
2023/03/04 09:48:06;;;;;;;0.43;0.43;;;6.00;1.00;;;;;;5027190;28;20463;-83
2023/03/04 09:50:40;;;;;;;0.00;0.00;;;5.90;99.90;;;;;;5026435;28;20602;-83
2023/03/04 09:53:56;;;;;;;0.00;0.00;;;5.90;1.00;;;;;;5027566;28;20051;-83
2023/03/04 09:56:22;;;;;;;1.90;0.57;;;5.90;99.90;;;;;;5036296;28;20080;-83
2023/03/04 09:59:06;;;;;;;0.00;0.00;;;6.00;99.90;;;;;;5030760;28;20041;-83
2023/03/04 10:01:49;;;;;;;0.00;0.00;;;6.10;99.90;;;;;;5031240;28;20056;-83
2023/03/04 10:04:29;;;;;;;0.00;0.00;;;6.30;99.90;;;;;;5030677;28;20068;-83
2023/03/04 10:06:56;;;;;;;0.00;0.00;;;6.40;1.00;;;;;;5030751;28;20400;-83
2023/03/04 10:09:36;;;;;;;1.05;1.02;;;6.50;1.00;;;;;;5031318;28;20052;-83
2023/03/04 10:12:05;;;;;;;0.77;0.73;;;6.60;1.00;;;;;;5031308;28;20045;-83
2023/03/04 10:14:50;;;;;;;0.00;0.00;;;6.70;62.20;;;;;;5063501;28;20518;-83
2023/03/04 10:17:41;;;;;;;5.18;1.45;;;7.00;99.90;;;;;;5029708;28;20105;-83
2023/03/04 10:20:23;;;;;;;0.00;0.00;;;7.20;99.90;;;;;;5031690;28;20512;-83
2023/03/04 10:22:51;;;;;;;18.58;2.13;;;7.20;1.00;;;;;;5031673;28;20049;-83
2023/03/04 10:25:31;;;;;;;0.00;0.00;;;7.10;1.00;;;;;;5032158;28;20486;-82
2023/03/04 10:28:10;;;;;;;0.10;0.10;;;6.90;1.00;;;;;;5030390;28;20124;-83
2023/03/04 10:30:52;;;;;;;0.17;0.17;;;6.80;1.00;;;;;;5031847;28;20092;-82
2023/03/04 10:33:21;;;;;;;2.75;0.93;;;6.70;99.90;;;;;;5028920;28;20530;-82
2023/03/04 10:36:05;;;;;;;1.10;0.60;;;6.70;99.90;;;;;;5031032;28;20045;-82
2023/03/04 10:38:34;;;;;;;0.00;0.00;;;6.80;1.00;;;;;;5031942;28;20576;-82
2023/03/04 10:41:01;;;;;;;0.38;0.35;;;6.90;99.90;;;;;;5030799;28;20041;-83
2023/03/04 10:43:28;;;;;;;0.00;0.00;;;7.00;99.90;;;;;;5031582;28;20083;-83
2023/03/04 10:45:56;;;;;;;0.10;0.10;;;7.10;1.00;;;;;;5030590;28;20530;-82
2023/03/04 10:48:25;;;;;;;0.45;0.38;;;7.20;99.90;;;;;;5030886;28;20060;-82
2023/03/04 10:50:51;;;;;;;0.30;0.30;;;7.20;99.90;;;;;;5030963;28;20053;-82
2023/03/04 10:53:56;;;;;;;1.98;1.77;;;7.10;1.00;;;;;;5031195;28;20546;-82
2023/03/04 10:56:58;;;;;;;22.23;0.98;;;7.00;99.90;;;;;;5047802;28;20057;-82
2023/03/04 10:59:24;;;;;;;0.00;0.00;;;6.90;99.90;;;;;;5031106;28;20045;-82
2023/03/04 11:01:52;;;;;;;0.30;0.30;;;6.90;88.70;;;;;;5030583;28;20045;-82
2023/03/04 11:04:19;;;;;;;2.25;1.27;;;6.90;99.90;;;;;;5029208;28;20053;-82
2023/03/04 11:06:44;;;;;;;0.13;0.13;;;7.00;99.90;;;;;;5029964;28;20064;-82
2023/03/04 11:09:28;;;;;;;0.00;0.00;;;7.20;99.90;;;;;;5030350;28;20050;-83
2023/03/04 11:12:01;;;;;;;0.63;0.63;;;7.20;1.00;;;;;;5030519;28;20061;-82
2023/03/04 11:14:29;;;;;;;0.00;0.00;;;7.30;1.00;;;;;;5029504;28;20046;-82
2023/03/04 11:17:01;;;;;;;0.55;0.38;;;7.50;17.20;;;;;;5029719;28;20045;-82
2023/03/04 11:19:34;;;;;;;1.50;1.40;;;8.80;1.00;;;;;;5030502;28;20041;-82
2023/03/04 11:22:01;;;;;;;0.05;0.05;;;7.70;1.00;;;;;;5030642;28;20551;-83
2023/03/04 11:24:29;;;;;;;0.00;0.00;;;7.70;1.00;;;;;;5029618;28;20399;-82
2023/03/04 11:27:07;;;;;;;0.00;0.00;;;7.60;1.00;;;;;;5029241;28;20049;-82
2023/03/04 11:29:54;;;;;;;7.68;1.17;;;7.60;1.00;;;;;;5029540;28;20053;-82
2023/03/04 11:32:25;;;;;;;;;;;7.60;1.00;;;;;;5033457;28;20068;-82
2023/03/04 11:34:53;;;;;;;0.00;0.00;;;7.50;99.90;;;;;;5032619;28;19935;-82
2023/03/04 11:37:36;;;;;;;2.10;1.10;;;7.50;1.00;;;;;;5064224;28;20041;-82
2023/03/04 11:40:22;;;;;;;16.00;1.20;;;7.70;1.00;;;;;;5033575;28;20072;-82
2023/03/04 11:43:25;;;;;;;4.28;0.95;;;7.60;99.90;;;;;;5032707;28;20443;-82
2023/03/04 11:46:10;;;;;;;0.17;0.17;;;7.80;1.00;;;;;;5032149;28;20515;-82
2023/03/04 11:48:35;;;;;;;0.45;0.30;;;8.30;99.90;;;;;;5033022;28;20041;-82
2023/03/04 11:51:12;;;;;;;1.17;0.82;;;8.60;1.00;;;;;;5032573;28;20123;-82
2023/03/04 11:53:46;;;;;;;1.90;1.45;;;8.80;99.90;;;;;;5031597;28;20052;-82
2023/03/04 11:56:35;;;;;;;0.95;0.63;;;8.80;99.90;;;;;;5029994;28;20049;-82
2023/03/04 11:59:19;;;;;;;0.20;0.15;;;8.50;99.90;;;;;;5032360;28;20061;-82
2023/03/04 12:01:45;;;;;;;0.00;0.00;;;8.80;1.00;;;;;;5031770;28;20091;-82
2023/03/04 12:04:20;;;;;;;1.25;0.88;;;7.60;99.90;;;;;;5031450;28;20057;-82
2023/03/04 12:07:15;;;;;;;0.32;0.25;;;7.30;99.90;;;;;;5031305;28;20078;-82
2023/03/04 12:10:04;;;;;;;0.65;0.55;;;7.10;8.80;;;;;;5031986;28;20053;-82
2023/03/04 12:13:07;;;;;;;0.93;0.73;;;7.30;94.70;;;;;;5031118;28;20049;-82
2023/03/04 12:16:10;;;;;;;0.25;0.25;;;7.50;99.90;;;;;;5030873;28;20045;-82
2023/03/04 12:18:52;;;;;;;2.45;0.95;;;8.00;99.90;;;;;;5031364;28;20663;-82
2023/03/04 12:21:50;;;;;;;0.32;0.32;;;9.00;99.90;;;;;;5030965;28;20049;-82
2023/03/04 12:24:40;;;;;;;0.65;0.65;;;7.90;1.00;;;;;;5030040;28;20053;-82
2023/03/04 12:27:25;;;;;;;0.00;0.00;;;7.70;1.00;;;;;;5030890;28;20053;-82
2023/03/04 12:30:21;;;;;;;0.00;0.00;;;7.70;1.00;;;;;;5030992;28;20112;-82
2023/03/04 12:33:01;;;;;;;0.00;0.00;;;8.00;1.00;;;;;;5031135;28;20452;-82
2023/03/04 12:35:45;;;;;;;0.17;0.10;;;8.70;1.00;;;;;;5030945;28;20054;-82
2023/03/04 12:38:34;;;;;;;0.45;0.30;;;9.00;99.90;;;;;;5030761;28;20045;-82
2023/03/04 12:41:38;;;;;;;0.22;0.15;;;9.20;99.90;;;;;;5030860;28;20050;-82
2023/03/04 12:44:20;;;;;;;3.83;0.65;;;9.20;99.90;;;;;;5031384;28;20614;-82
2023/03/04 12:46:51;;;;;;;0.00;0.00;;;8.60;99.90;;;;;;5030783;28;20152;-82
2023/03/04 12:49:36;;;;;;;8.10;0.22;;;8.30;99.90;;;;;;5030813;28;20053;-81
2023/03/04 12:52:16;;;;;;;6.10;0.70;;;7.90;99.90;;;;;;5029688;28;20064;-82
2023/03/04 12:54:48;;;;;;;0.10;0.10;;;7.70;99.90;;;;;;5030729;28;20045;-81
2023/03/04 12:57:16;;;;;;;8.30;1.10;;;7.50;99.90;;;;;;5030819;28;20069;-82
2023/03/04 13:00:13;;;;;;;0.00;0.00;;;7.70;99.90;;;;;;5030663;28;20053;-82
2023/03/04 13:03:14;;;;;;;6.78;0.73;;;7.90;1.00;;;;;;5028234;28;20053;-82
2023/03/04 13:05:55;;;;;;;0.30;0.30;;;7.80;99.90;;;;;;5029808;28;20046;-82
2023/03/04 13:08:27;;;;;;;3.13;0.95;;;7.70;1.00;;;;;;5030220;28;20075;-82
2023/03/04 13:11:22;;;;;;;1.63;1.15;;;8.00;99.90;;;;;;5030717;28;20037;-82
2023/03/04 13:14:05;;;;;;;20.50;1.02;;;8.80;99.90;;;;;;5031094;28;20045;-82